Time;durP1;ratioP1;P1;durP2;ratioP2;P2;SDS_P1;SDS_P2;PMS_P1;PMS_P2;Temp;Humidity;BMP_temperature;BMP_pressure;BME280_temperature;BME280_humidity;BME280_pressure;Samples;Min_cycle;Max_cycle;Signal;HPM_P1;HPM_P2
2023/01/04 00:01:14;;;;;;;16.93;8.77;;;;;;;5.22;100.00;98788.41;1756652;81;21021;-70
2023/01/04 00:03:42;;;;;;;18.37;8.95;;;;;;;5.25;100.00;98792.11;1758672;81;21037;-71
2023/01/04 00:06:11;;;;;;;16.20;7.67;;;;;;;5.28;100.00;98789.10;1754337;81;21037;-69
2023/01/04 00:08:40;;;;;;;18.13;8.80;;;;;;;5.31;100.00;98788.27;1750328;79;21031;-70
2023/01/04 00:11:18;;;;;;;18.43;8.97;;;;;;;5.34;100.00;98787.08;1759344;81;21017;-71
2023/01/04 00:13:49;;;;;;;20.13;9.80;;;;;;;5.37;100.00;98792.11;1755312;81;21014;-70
2023/01/04 00:16:21;;;;;;;19.50;8.50;;;;;;;5.38;100.00;98788.91;1756878;81;21040;-70
2023/01/04 00:18:50;;;;;;;19.90;9.63;;;;;;;5.39;100.00;98794.63;1753191;81;21558;-70
2023/01/04 00:21:25;;;;;;;18.90;8.90;;;;;;;5.40;100.00;98789.10;1755709;79;21068;-70
2023/01/04 00:23:55;;;;;;;18.97;9.00;;;;;;;5.41;100.00;98800.66;1761771;81;20998;-71
2023/01/04 00:26:28;;;;;;;17.83;8.50;;;;;;;5.40;100.00;98791.78;1757156;80;20978;-71
2023/01/04 00:29:04;;;;;;;17.30;8.40;;;;;;;5.41;100.00;98793.44;1758313;80;21045;-70
2023/01/04 00:31:34;;;;;;;18.77;8.73;;;;;;;5.41;100.00;98792.61;1750021;79;21037;-70
2023/01/04 00:34:03;;;;;;;16.33;7.83;;;;;;;5.41;100.00;98794.78;1757840;81;21063;-71
2023/01/04 00:36:32;;;;;;;16.07;7.70;;;;;;;5.41;100.00;98801.48;1752974;82;21021;-70
2023/01/04 00:39:06;;;;;;;14.97;7.40;;;;;;;5.41;100.00;98801.98;1756626;79;21487;-70
2023/01/04 00:41:49;;;;;;;16.20;7.97;;;;;;;5.39;100.00;98810.71;1755085;81;21036;-69
2023/01/04 00:44:16;;;;;;;17.85;8.80;;;;;;;5.36;100.00;98820.42;1751233;81;21539;-71
2023/01/04 00:46:44;;;;;;;16.60;7.23;;;;;;;5.31;100.00;98822.25;1757057;81;21486;-69
2023/01/04 00:49:11;;;;;;;16.87;7.77;;;;;;;5.28;100.00;98825.28;1755755;81;21033;-71
2023/01/04 00:51:40;;;;;;;17.37;8.17;;;;;;;5.24;100.00;98822.58;1758633;81;21037;-71
2023/01/04 00:54:11;;;;;;;16.37;7.87;;;;;;;5.21;100.00;98830.98;1750156;82;21005;-69
2023/01/04 00:56:38;;;;;;;18.30;8.40;;;;;;;5.17;100.00;98836.31;1763893;81;21060;-71
2023/01/04 00:59:05;;;;;;;17.10;7.40;;;;;;;5.16;100.00;98834.66;1754146;81;21022;-70
2023/01/04 01:01:33;;;;;;;15.33;7.40;;;;;;;5.11;100.00;98845.34;1758279;81;20982;-71
2023/01/04 01:04:01;;;;;;;17.43;7.70;;;;;;;5.08;100.00;98848.86;1755959;81;20977;-70
2023/01/04 01:06:29;;;;;;;15.07;7.20;;;;;;;5.04;100.00;98852.37;1755852;81;21026;-71
2023/01/04 01:08:56;;;;;;;14.33;7.20;;;;;;;4.99;100.00;98854.70;1758004;80;21495;-71
2023/01/04 01:11:23;;;;;;;14.43;6.97;;;;;;;4.93;100.00;98856.20;1752385;81;21037;-71
2023/01/04 01:13:50;;;;;;;14.03;7.17;;;;;;;4.89;100.00;98862.90;1753527;81;21063;-69
2023/01/04 01:16:20;;;;;;;18.87;7.40;;;;;;;4.83;100.00;98868.89;1757795;81;21012;-70
2023/01/04 01:18:47;;;;;;;11.07;5.97;;;;;;;4.80;100.00;98873.73;1755211;81;21025;-70
2023/01/04 01:21:23;;;;;;;15.23;6.53;;;;;;;4.77;100.00;98872.23;1761201;81;21028;-70
2023/01/04 01:23:50;;;;;;;13.70;6.37;;;;;;;4.74;100.00;98879.25;1762640;81;21152;-70
2023/01/04 01:26:19;;;;;;;12.83;6.60;;;;;;;4.69;100.00;98873.53;1758763;81;21064;-69
2023/01/04 01:28:46;;;;;;;14.00;6.67;;;;;;;4.67;100.00;98892.95;1763095;81;21021;-70
2023/01/04 01:31:16;;;;;;;17.03;6.70;;;;;;;4.62;100.00;98893.92;1761101;81;21057;-70
2023/01/04 01:33:45;;;;;;;14.20;6.90;;;;;;;4.59;100.00;98911.67;1760675;81;21009;-71
2023/01/04 01:36:14;;;;;;;14.50;6.67;;;;;;;4.54;100.00;98904.94;1755362;79;21010;-70
2023/01/04 01:38:41;;;;;;;15.40;7.40;;;;;;;4.51;100.00;98917.80;1755274;81;21013;-70
2023/01/04 01:41:21;;;;;;;14.80;6.90;;;;;;;4.47;100.00;98925.31;1757274;81;21499;-70
2023/01/04 01:43:57;;;;;;;15.83;7.03;;;;;;;4.47;100.00;98933.86;1755629;81;21077;-70
2023/01/04 01:46:40;;;;;;;12.47;6.27;;;;;;;4.44;100.00;98938.18;1758649;81;21064;-68
2023/01/04 01:49:29;;;;;;;12.25;6.22;;;;;;;4.43;100.00;98937.35;1759076;80;21017;-70
2023/01/04 01:52:01;;;;;;;13.13;6.43;;;;;;;4.41;100.00;98946.05;1754623;81;21510;-70
2023/01/04 01:54:45;;;;;;;11.50;5.90;;;;;;;4.37;100.00;98936.63;1755955;82;20982;-71
2023/01/04 01:57:18;;;;;;;12.43;5.97;;;;;;;4.34;100.00;98946.34;1752131;81;20994;-70
2023/01/04 01:59:46;;;;;;;11.50;5.72;;;;;;;4.31;100.00;98950.66;1758179;81;21029;-70
2023/01/04 02:02:13;;;;;;;11.07;5.73;;;;;;;4.27;100.00;98948.80;1756081;82;20962;-70
2023/01/04 02:04:44;;;;;;;11.83;5.60;;;;;;;4.26;100.00;98962.33;1760692;81;21065;-71
2023/01/04 02:07:12;;;;;;;11.70;5.27;;;;;;;4.23;100.00;98963.46;1754315;81;21050;-70
2023/01/04 02:09:40;;;;;;;10.17;5.13;;;;;;;4.21;100.00;98969.98;1732086;81;21025;-69
2023/01/04 02:12:12;;;;;;;13.07;5.60;;;;;;;4.18;100.00;98975.16;1734227;81;21005;-70
2023/01/04 02:14:40;;;;;;;7.65;4.45;;;;;;;4.17;100.00;98978.83;1761362;80;21494;-71
2023/01/04 02:17:24;;;;;;;12.97;5.30;;;;;;;4.12;100.00;98980.61;1756111;81;21688;-69
2023/01/04 02:20:26;;;;;;;10.43;4.63;;;;;;;4.09;100.00;98992.98;1753302;81;21017;-70
2023/01/04 02:23:23;;;;;;;13.83;5.90;;;;;;;4.06;100.00;98993.29;1755544;81;21033;-70
2023/01/04 02:26:19;;;;;;;11.70;6.00;;;;;;;4.00;100.00;99001.91;1750702;82;21006;-70
2023/01/04 02:29:16;;;;;;;10.90;5.00;;;;;;;3.93;100.00;99011.55;1755035;81;21021;-70
2023/01/04 02:32:02;;;;;;;6.20;4.33;;;;;;;3.90;100.00;99021.24;1734241;80;21823;-70
2023/01/04 02:34:47;;;;;;;10.87;4.90;;;;;;;3.86;100.00;99031.41;1730710;81;21068;-69
2023/01/04 02:37:29;;;;;;;11.03;4.87;;;;;;;3.82;100.00;99041.21;1757616;79;21032;-70
2023/01/04 02:40:22;;;;;;;10.37;5.00;;;;;;;3.76;100.00;99058.20;1755481;81;21013;-70
2023/01/04 02:46:00;;;;;;;8.43;4.17;;;;;;;3.64;100.00;99073.28;1746299;81;20994;-71
2023/01/04 02:51:32;;;;;;;8.57;4.57;;;;;;;3.52;100.00;99102.88;1753454;82;20986;-70
2023/01/04 02:54:04;;;;;;;6.63;4.30;;;;;;;3.47;100.00;99113.67;1756918;81;21005;-69
2023/01/04 02:57:03;;;;;;;8.73;4.27;;;;;;;3.46;100.00;99126.70;1759549;81;21531;-69
2023/01/04 02:59:50;;;;;;;11.03;5.17;;;;;;;3.43;100.00;99147.87;1763447;81;21049;-69
2023/01/04 03:06:16;;;;;;;6.47;3.50;;;;;;;3.33;100.00;99159.95;1757065;80;20974;-68
2023/01/04 03:08:57;;;;;;;13.47;5.23;;;;;;;3.23;100.00;99159.13;1759553;81;21511;-69
2023/01/04 03:14:20;;;;;;;7.35;3.92;;;;;;;3.09;100.00;99186.31;1756228;81;21053;-72
2023/01/04 03:16:48;;;;;;;46.03;20.77;;;;;;;3.06;100.00;99191.94;1754521;81;20998;-69
2023/01/04 03:19:50;;;;;;;20.27;9.50;;;;;;;3.01;100.00;99213.72;1756909;81;21515;-70
2023/01/04 03:21:44;;;;;;;61.13;20.13;;;;;;;2.98;100.00;99211.36;1752134;81;21057;-70
2023/01/04 03:36:00;;;;;;;9.20;3.70;;;;;;;2.87;100.00;99229.71;1754857;81;20998;-71
2023/01/04 03:50:20;;;;;;;9.63;4.53;;;;;;;2.71;100.00;99241.42;1656963;85;21001;-70
2023/01/04 03:52:47;;;;;;;10.60;4.30;;;;;;;2.66;100.00;99249.38;1708587;81;21049;-70
2023/01/04 03:55:14;;;;;;;7.17;4.07;;;;;;;2.61;100.00;99242.27;1732260;81;21025;-69
2023/01/04 03:57:41;;;;;;;5.77;3.50;;;;;;;2.64;100.00;99246.00;1757089;81;21047;-70
2023/01/04 04:00:12;;;;;;;8.03;4.07;;;;;;;2.62;100.00;99249.31;1754683;81;21472;-69
2023/01/04 04:02:40;;;;;;;5.10;3.50;;;;;;;2.61;100.00;99252.95;1738988;82;21053;-69
2023/01/04 04:10:40;;;;;;;6.67;3.67;;;;;;;2.60;100.00;99254.42;1752621;82;21480;-71
2023/01/04 04:13:08;;;;;;;8.17;4.07;;;;;;;2.60;100.00;99263.76;1755416;81;21581;-71
2023/01/04 04:15:35;;;;;;;7.40;4.10;;;;;;;2.59;100.00;99262.09;1754729;81;21030;-71
2023/01/04 04:18:02;;;;;;;7.40;3.60;;;;;;;2.55;100.00;99265.53;1750552;81;21014;-70
2023/01/04 04:20:29;;;;;;;11.73;5.60;;;;;;;2.55;100.00;99272.20;1750209;81;21452;-70
2023/01/04 04:22:56;;;;;;;25.50;11.00;;;;;;;2.54;100.00;99265.66;1753414;81;21017;-69
2023/01/04 04:25:23;;;;;;;16.13;6.90;;;;;;;2.50;100.00;99261.09;1756352;79;21057;-70
2023/01/04 04:27:50;;;;;;;13.60;6.47;;;;;;;2.47;100.00;99269.37;1753373;81;21017;-70
2023/01/04 04:30:17;;;;;;;9.47;5.50;;;;;;;2.44;100.00;99273.64;1756297;81;21064;-70
2023/01/04 04:32:44;;;;;;;8.40;4.47;;;;;;;2.45;100.00;99274.01;1755871;79;21559;-69
2023/01/04 04:35:12;;;;;;;8.53;4.30;;;;;;;2.46;100.00;99269.87;1758039;81;21021;-69
2023/01/04 04:37:39;;;;;;;9.63;4.20;;;;;;;2.46;100.00;99271.67;1757628;81;20989;-72
2023/01/04 04:41:37;;;;;;;8.27;4.10;;;;;;;2.46;100.00;99267.67;1757762;81;21044;-69
2023/01/04 04:42:36;;;;;;;7.83;4.13;;;;;;;2.45;100.00;99271.34;1753735;81;21065;-69
2023/01/04 04:45:04;;;;;;;6.47;3.50;;;;;;;2.43;100.00;99274.64;1759226;81;21005;-69
2023/01/04 04:47:31;;;;;;;6.83;3.50;;;;;;;2.40;100.00;99282.41;1753166;81;21032;-69
2023/01/04 04:49:58;;;;;;;8.07;4.00;;;;;;;2.38;100.00;99277.70;1752970;81;21498;-69
2023/01/04 04:52:25;;;;;;;11.03;5.17;;;;;;;2.37;100.00;99279.17;1758148;80;21049;-71
2023/01/04 04:54:52;;;;;;;13.43;7.10;;;;;;;2.33;100.00;99269.77;1760761;81;21033;-69
2023/01/04 04:57:19;;;;;;;14.97;7.83;;;;;;;2.31;100.00;99276.57;1761115;81;21514;-69
2023/01/04 04:59:46;;;;;;;15.80;8.20;;;;;;;2.28;100.00;99282.17;1758619;81;20986;-69
2023/01/04 05:02:13;;;;;;;16.37;8.20;;;;;;;2.22;100.00;99282.23;1757615;81;21049;-67
2023/01/04 05:04:39;;;;;;;22.27;12.03;;;;;;;2.17;100.00;99283.13;1751206;81;21546;-69
2023/01/04 05:07:06;;;;;;;23.57;13.77;;;;;;;2.16;100.00;99285.93;1758626;80;21009;-70
2023/01/04 05:09:33;;;;;;;28.10;18.03;;;;;;;2.15;100.00;99289.59;1757353;81;21029;-71
2023/01/04 05:14:48;;;;;;;17.53;10.03;;;;;;;2.09;100.00;99297.66;1756459;80;21523;-70
2023/01/04 05:17:16;;;;;;;18.07;9.50;;;;;;;2.01;100.00;99298.30;1754104;81;21013;-69
2023/01/04 05:19:44;;;;;;;25.60;13.77;;;;;;;1.96;100.00;99296.53;1754058;81;21069;-69
2023/01/04 05:22:11;;;;;;;28.97;17.53;;;;;;;1.91;100.00;99304.08;1756766;81;21566;-69
2023/01/04 05:24:41;;;;;;;20.23;10.27;;;;;;;1.88;100.00;99305.70;1756773;81;21049;-69
2023/01/04 05:27:09;;;;;;;19.27;9.17;;;;;;;1.86;100.00;99310.30;1757021;81;21021;-71
2023/01/04 05:32:22;;;;;;;20.47;10.90;;;;;;;1.87;100.00;99313.33;1752933;81;20978;-69
2023/01/04 05:34:50;;;;;;;18.33;8.73;;;;;;;1.88;100.00;99303.04;1756384;81;20997;-70
2023/01/04 05:37:17;;;;;;;17.33;8.27;;;;;;;1.86;100.00;99298.30;1758083;81;21035;-71
2023/01/04 05:39:44;;;;;;;17.23;8.10;;;;;;;1.84;100.00;99304.27;1758385;81;21630;-69
2023/01/04 05:42:24;;;;;;;14.00;6.37;;;;;;;1.80;100.00;99313.02;1755818;81;21068;-70
2023/01/04 05:44:55;;;;;;;13.47;5.80;;;;;;;1.74;100.00;99312.72;1759207;81;21468;-71
2023/01/04 05:47:22;;;;;;;21.03;10.80;;;;;;;1.68;100.00;99322.94;1756292;81;21069;-70
2023/01/04 05:49:49;;;;;;;22.57;11.17;;;;;;;1.64;100.00;99328.15;1754222;81;20981;-70
2023/01/04 05:52:16;;;;;;;17.80;8.63;;;;;;;1.62;100.00;99319.94;1752580;81;20998;-70
2023/01/04 05:54:43;;;;;;;16.73;7.60;;;;;;;1.63;100.00;99324.28;1756334;81;21009;-71
2023/01/04 05:57:10;;;;;;;18.60;8.53;;;;;;;1.61;100.00;99330.23;1758453;81;21025;-70
2023/01/04 06:00:01;;;;;;;17.93;8.87;;;;;;;1.60;100.00;99333.89;1755639;81;21026;-70
2023/01/04 06:02:29;;;;;;;23.27;11.87;;;;;;;1.62;100.00;99321.27;1734343;82;21065;-70
2023/01/04 06:04:56;;;;;;;23.93;12.33;;;;;;;1.63;100.00;99319.81;1732464;82;21479;-71
2023/01/04 06:07:26;;;;;;;15.93;7.83;;;;;;;1.64;100.00;99325.48;1722081;82;21002;-70
2023/01/04 06:09:53;;;;;;;16.23;7.43;;;;;;;1.66;100.00;99328.02;1721716;83;21169;-69
2023/01/04 06:12:20;;;;;;;20.87;7.83;;;;;;;1.68;100.00;99330.06;1724646;82;21021;-70
2023/01/04 06:14:46;;;;;;;19.90;7.47;;;;;;;1.69;100.00;99331.77;1730995;82;21103;-71
2023/01/04 06:17:13;;;;;;;16.10;6.63;;;;;;;1.71;100.00;99325.81;1726098;83;21116;-71
2023/01/04 06:19:40;;;;;;;17.73;7.67;;;;;;;1.73;100.00;99332.34;1724266;83;21065;-70
2023/01/04 06:22:07;;;;;;;17.80;7.27;;;;;;;1.74;100.00;99336.22;1721956;83;21534;-69
2023/01/04 06:24:34;;;;;;;20.07;8.43;;;;;;;1.74;100.00;99326.89;1725725;83;21076;-69
2023/01/04 06:27:02;;;;;;;16.20;7.60;;;;;;;1.75;100.00;99330.38;1729840;82;21115;-71
2023/01/04 06:29:29;;;;;;;13.10;6.10;;;;;;;1.73;100.00;99333.18;1707496;83;21053;-70
2023/01/04 06:31:56;;;;;;;10.50;5.30;;;;;;;1.73;100.00;99335.01;1708358;83;21050;-70
2023/01/04 06:34:23;;;;;;;12.77;5.63;;;;;;;1.75;100.00;99339.22;1703993;82;21491;-69
2023/01/04 06:36:50;;;;;;;13.73;6.57;;;;;;;1.78;100.00;99340.30;1713386;83;21030;-70
2023/01/04 06:39:17;;;;;;;13.90;6.30;;;;;;;1.80;100.00;99335.67;1705007;83;21026;-69
2023/01/04 06:41:44;;;;;;;16.17;6.73;;;;;;;1.82;100.00;99333.71;1697343;83;21042;-69
2023/01/04 06:44:11;;;;;;;17.53;7.00;;;;;;;1.86;100.00;99337.83;1697252;83;21008;-72
2023/01/04 06:46:39;;;;;;;17.03;6.67;;;;;;;1.88;100.00;99337.20;1720983;83;21070;-70
2023/01/04 06:49:06;;;;;;;12.07;5.63;;;;;;;1.92;100.00;99342.27;1702633;83;21057;-70
2023/01/04 06:51:33;;;;;;;13.63;6.33;;;;;;;1.97;100.00;99342.72;1725935;82;21036;-69
2023/01/04 06:54:00;;;;;;;15.70;6.23;;;;;;;2.03;100.00;99346.17;1729845;82;21048;-71
2023/01/04 06:56:27;;;;;;;14.80;5.50;;;;;;;2.06;100.00;99342.75;1721889;83;21064;-70
2023/01/04 06:58:54;;;;;;;14.20;6.70;;;;;;;2.14;100.00;99346.07;1680409;84;21041;-70
2023/01/04 07:01:22;;;;;;;13.53;5.23;;;;;;;2.22;100.00;99343.59;1658578;85;21038;-71
2023/01/04 07:03:50;;;;;;;13.53;6.13;;;;;;;2.31;100.00;99333.09;1648662;84;21105;-70
2023/01/04 07:06:17;;;;;;;13.27;6.70;;;;;;;2.42;100.00;99332.48;1640862;86;21065;-71
2023/01/04 07:08:45;;;;;;;13.37;6.07;;;;;;;2.52;100.00;99323.68;1633989;86;21184;-71
2023/01/04 07:11:12;;;;;;;11.30;5.47;;;;;;;2.64;100.00;99329.25;1640336;86;21097;-70
2023/01/04 07:13:39;;;;;;;14.37;6.13;;;;;;;2.73;100.00;99327.58;1616854;85;21097;-70
2023/01/04 07:16:07;;;;;;;11.07;5.20;;;;;;;2.80;100.00;99331.39;1699684;83;21578;-70
2023/01/04 07:18:36;;;;;;;10.37;5.07;;;;;;;2.84;100.00;99333.62;1701480;83;21111;-69
2023/01/04 07:21:03;;;;;;;12.53;5.97;;;;;;;2.88;100.00;99340.86;1711703;83;20990;-70
2023/01/04 07:23:31;;;;;;;11.03;5.70;;;;;;;2.92;100.00;99340.96;1658197;84;21136;-71
2023/01/04 07:40:29;;;;;;;11.83;6.27;;;;;;;3.56;100.00;99512.42;1852125;77;21956;-74
2023/01/04 07:42:57;;;;;;;8.63;4.93;;;;;;;3.60;100.00;99374.33;1820166;78;20977;-74
2023/01/04 07:45:26;;;;;;;9.77;5.13;;;;;;;3.64;100.00;99376.22;1813277;78;21510;-71
2023/01/04 07:47:53;;;;;;;13.00;5.53;;;;;;;3.63;100.00;99390.59;1794220;80;21053;-75
2023/01/04 07:50:22;;;;;;;24.83;12.43;;;;;;;3.63;100.00;99405.30;1785013;78;21083;-74
2023/01/04 07:52:49;;;;;;;9.83;5.10;;;;;;;3.67;100.00;99414.72;1776524;81;21021;-70
2023/01/04 07:55:16;;;;;;;10.43;4.67;;;;;;;3.72;100.00;99411.12;1776233;81;21074;-75
2023/01/04 07:57:43;;;;;;;9.07;4.37;;;;;;;3.79;100.00;99424.27;1777138;81;21038;-74
2023/01/04 08:00:12;;;;;;;10.80;5.03;;;;;;;3.88;100.00;99434.61;1776739;81;21054;-75
2023/01/04 08:02:39;;;;;;;11.73;5.33;;;;;;;4.02;100.00;99438.67;1777209;81;21115;-75
2023/01/04 08:05:06;;;;;;;9.90;4.80;;;;;;;4.15;100.00;99445.89;1777138;81;21034;-75
2023/01/04 08:07:33;;;;;;;7.60;4.23;;;;;;;4.26;100.00;99442.19;1776763;81;21106;-75
2023/01/04 08:10:00;;;;;;;16.17;5.83;;;;;;;4.39;100.00;99445.88;1777187;81;21057;-75
2023/01/04 08:12:27;;;;;;;22.83;11.77;;;;;;;4.47;100.00;99456.71;1777300;81;21085;-75
2023/01/04 08:14:55;;;;;;;11.13;5.70;;;;;;;4.56;100.00;99459.84;1777454;81;21058;-75
2023/01/04 08:17:23;;;;;;;14.73;7.47;;;;;;;4.73;100.00;99465.44;1777920;81;21051;-75
2023/01/04 08:19:50;;;;;;;11.47;5.20;;;;;;;4.87;100.00;99474.33;1778020;81;21019;-73
2023/01/04 08:22:17;;;;;;;7.87;4.40;;;;;;;5.03;100.00;99476.83;1778059;80;21038;-69
2023/01/04 08:24:43;;;;;;;8.40;4.47;;;;;;;5.08;100.00;99502.69;1777714;81;21034;-68
2023/01/04 08:27:10;;;;;;;9.93;4.90;;;;;;;5.09;100.00;99515.11;1804573;79;21054;-70
2023/01/04 08:29:37;;;;;;;12.30;4.87;;;;;;;5.19;100.00;99536.02;1809684;79;21046;-70
2023/01/04 08:32:05;;;;;;;12.30;4.87;;;;;;;5.33;100.00;99542.72;1809276;79;21046;-71
2023/01/04 08:34:32;;;;;;;8.73;4.53;;;;;;;5.32;100.00;99565.15;1809458;79;21093;-71
2023/01/04 08:36:59;;;;;;;9.27;4.63;;;;;;;5.29;100.00;99584.20;1810253;78;21315;-70
2023/01/04 08:39:28;;;;;;;8.23;4.27;;;;;;;5.22;100.00;99601.36;1816389;78;21575;-71
2023/01/04 08:41:54;;;;;;;10.17;5.70;;;;;;;5.20;100.00;99623.45;1808752;78;21004;-71
2023/01/04 08:44:23;;;;;;;11.73;4.63;;;;;;;5.33;100.00;99622.64;1770422;80;21037;-71
2023/01/04 08:46:51;;;;;;;9.97;4.93;;;;;;;5.42;100.00;99627.62;1772461;80;21053;-70
2023/01/04 08:49:18;;;;;;;11.90;5.20;;;;;;;5.50;100.00;99634.41;1809482;79;20945;-70
2023/01/04 08:51:45;;;;;;;10.07;4.97;;;;;;;5.50;100.00;99651.00;1809417;79;21005;-71
2023/01/04 08:54:12;;;;;;;13.50;5.20;;;;;;;5.55;100.00;99654.09;1809541;79;21027;-70
2023/01/04 08:56:39;;;;;;;10.13;4.60;;;;;;;5.65;100.00;99657.58;1809559;79;20973;-71
2023/01/04 08:59:08;;;;;;;11.37;5.27;;;;;;;5.77;100.00;99656.89;1809472;79;21573;-70
2023/01/04 09:01:38;;;;;;;8.37;4.40;;;;;;;5.68;100.00;99688.61;1715727;80;21608;-70
2023/01/04 09:04:10;;;;;;;10.60;4.83;;;;;;;5.64;100.00;99704.16;1802812;79;21016;-70
2023/01/04 09:06:38;;;;;;;6.53;3.30;;;;;;;5.67;100.00;99718.63;1749652;81;21483;-70
2023/01/04 09:09:05;;;;;;;10.13;4.07;;;;;;;5.68;100.00;99735.55;1775724;80;21025;-72
2023/01/04 09:11:34;;;;;;;6.70;3.63;;;;;;;5.57;100.00;99749.99;1792766;79;21040;-69
2023/01/04 09:14:01;;;;;;;8.07;4.33;;;;;;;5.36;100.00;99770.80;1819721;78;21038;-70
2023/01/04 09:16:28;;;;;;;11.83;5.80;;;;;;;5.15;100.00;99790.56;1769222;81;21051;-70
2023/01/04 09:18:56;;;;;;;20.43;9.43;;;;;;;5.03;100.00;99807.31;1807586;78;21479;-70
2023/01/04 09:21:22;;;;;;;11.23;5.13;;;;;;;4.90;100.00;99812.92;1800949;78;20977;-70
2023/01/04 09:23:49;;;;;;;10.70;5.00;;;;;;;4.88;100.00;99808.20;1814786;78;20951;-70
2023/01/04 09:26:21;;;;;;;19.13;8.73;;;;;;;4.93;100.00;99796.57;1800540;78;20982;-70
2023/01/04 09:28:50;;;;;;;12.17;6.80;;;;;;;4.97;100.00;99800.32;1810363;77;21522;-70
2023/01/04 09:31:20;;;;;;;10.33;4.70;;;;;;;4.95;100.00;99793.25;1805897;78;21009;-70
2023/01/04 09:33:46;;;;;;;7.57;4.40;;;;;;;4.91;100.00;99797.21;1809259;78;20954;-71
2023/01/04 09:36:16;;;;;;;8.63;4.97;;;;;;;4.85;100.00;99796.45;1811211;78;20986;-70
2023/01/04 09:38:42;;;;;;;9.90;4.87;;;;;;;4.82;100.00;99797.22;1809182;78;21036;-71
2023/01/04 09:41:31;;;;;;;16.70;6.53;;;;;;;4.80;100.00;99803.19;1801541;79;21051;-70
2023/01/04 09:44:05;;;;;;;13.77;6.90;;;;;;;4.86;100.00;99807.50;1803588;79;20980;-69
2023/01/04 09:46:50;;;;;;;17.30;7.87;;;;;;;4.98;100.00;99802.03;1801571;79;21009;-71
2023/01/04 09:49:40;;;;;;;13.57;5.93;;;;;;;5.19;100.00;99790.66;1804627;78;20977;-70
2023/01/04 09:52:36;;;;;;;15.73;6.43;;;;;;;5.42;100.00;99782.27;1816407;78;21498;-68
2023/01/04 09:55:08;;;;;;;18.27;8.37;;;;;;;5.61;100.00;99787.63;1803977;79;21044;-71
2023/01/04 09:57:45;;;;;;;16.67;6.77;;;;;;;5.87;100.00;99793.67;1816055;78;20963;-71
2023/01/04 10:00:29;;;;;;;25.40;10.87;;;;;;;6.04;100.00;99799.64;1758499;79;20993;-71
2023/01/04 10:03:23;;;;;;;13.43;6.30;;;;;;;6.09;100.00;99812.60;1796401;79;20965;-73
2023/01/04 10:05:51;;;;;;;;;;;;;;;6.12;100.00;99829.77;1802947;79;20977;-72
2023/01/04 10:08:19;;;;;;;6.53;3.70;;;;;;;5.88;100.00;99874.03;1788931;80;20115;-70
2023/01/04 10:11:34;;;;;;;17.00;5.77;;;;;;;5.60;100.00;99901.77;1773825;81;20967;-71
2023/01/04 10:14:34;;;;;;;11.40;5.00;;;;;;;5.45;100.00;99926.33;1729541;81;21009;-75
2023/01/04 10:17:45;;;;;;;8.57;4.50;;;;;;;5.32;100.00;99942.67;1801996;79;21053;-72
2023/01/04 10:32:44;;;;;;;14.77;6.97;;;;;;;6.11;100.00;100048.70;1802431;79;22041;-76
2023/01/04 10:35:24;;;;;;;10.70;5.83;;;;;;;6.08;100.00;99979.55;1707266;82;21020;-75
2023/01/04 10:38:03;;;;;;;9.07;4.90;;;;;;;5.95;100.00;100004.47;1750205;81;21495;-71
2023/01/04 10:40:34;;;;;;;11.70;5.23;;;;;;;5.86;100.00;100013.35;1728959;82;21037;-72
2023/01/04 10:43:06;;;;;;;6.10;3.67;;;;;;;5.85;100.00;100013.86;1705776;82;21052;-76
2023/01/04 10:45:51;;;;;;;6.95;3.67;;;;;;;5.90;100.00;100010.76;1716165;82;21011;-71
2023/01/04 10:48:23;;;;;;;8.53;4.57;;;;;;;5.96;100.00;100013.39;1698424;83;21366;-71
2023/01/04 10:51:00;;;;;;;9.33;4.80;;;;;;;5.83;100.00;100024.39;1701666;82;21538;-70
2023/01/04 10:53:39;;;;;;;11.17;5.30;;;;;;;5.65;100.00;100043.02;1709197;82;21048;-72
2023/01/04 10:56:43;;;;;;;8.50;4.03;;;;;;;5.49;100.00;100046.24;1738730;81;20989;-70
2023/01/04 10:59:40;;;;;;;6.33;3.13;;;;;;;5.50;100.00;100047.92;1731602;81;21000;-69
2023/01/04 11:02:30;;;;;;;14.13;5.53;;;;;;;5.50;100.00;100035.34;1692181;82;21050;-70
2023/01/04 11:05:19;;;;;;;12.33;6.00;;;;;;;5.46;100.00;100044.67;1741461;81;20990;-69
2023/01/04 11:07:57;;;;;;;14.43;6.90;;;;;;;5.28;100.00;100048.52;1715726;82;20994;-73
2023/01/04 11:10:30;;;;;;;12.00;5.70;;;;;;;5.16;100.00;100044.23;1740407;81;21032;-71
2023/01/04 11:12:57;;;;;;;10.97;5.50;;;;;;;5.15;100.00;100035.83;1736457;81;21483;-72
2023/01/04 11:15:24;;;;;;;16.00;7.40;;;;;;;5.18;100.00;100025.34;1745845;81;21009;-72
2023/01/04 11:17:51;;;;;;;7.43;5.00;;;;;;;5.16;100.00;100021.45;1741757;81;21023;-76
2023/01/04 11:20:19;;;;;;;7.60;3.93;;;;;;;5.19;100.00;100021.19;1738666;82;21477;-75
2023/01/04 11:23:04;;;;;;;17.47;5.83;;;;;;;5.24;100.00;100010.91;1742760;81;21074;-73
2023/01/04 11:25:37;;;;;;;26.67;12.03;;;;;;;5.24;100.00;100020.76;1731809;81;21062;-74
2023/01/04 11:28:28;;;;;;;6.17;3.72;;;;;;;5.20;100.00;100032.25;1708304;82;21030;-70
2023/01/04 11:31:30;;;;;;;11.80;6.13;;;;;;;5.18;100.00;100043.61;1737630;81;21030;-72
2023/01/04 11:34:01;;;;;;;11.50;5.90;;;;;;;5.14;100.00;100049.73;1717316;82;21010;-70
2023/01/04 11:36:41;;;;;;;8.20;3.97;;;;;;;5.11;100.00;100060.72;1691308;83;21089;-71
2023/01/04 11:39:25;;;;;;;8.57;5.00;;;;;;;5.09;100.00;100057.83;1716124;83;20999;-72
2023/01/04 11:42:02;;;;;;;9.23;4.30;;;;;;;4.94;100.00;100070.76;1688381;84;20976;-72
2023/01/04 11:44:30;;;;;;;7.53;3.80;;;;;;;4.83;100.00;100082.38;1720465;83;21517;-72
2023/01/04 11:47:18;;;;;;;6.43;3.83;;;;;;;4.77;100.00;100071.37;1720313;83;21499;-73
2023/01/04 11:49:45;;;;;;;14.73;6.97;;;;;;;4.75;100.00;100064.80;1690456;84;21633;-72
2023/01/04 11:52:32;;;;;;;12.43;7.70;;;;;;;4.78;100.00;100051.62;1722006;83;21040;-72
2023/01/04 11:55:25;;;;;;;7.60;4.00;;;;;;;4.80;100.00;100041.14;1714266;83;21034;-76
2023/01/04 11:58:12;;;;;;;11.48;5.40;;;;;;;4.86;100.00;100041.09;1708301;83;21038;-73
2023/01/04 12:00:55;;;;;;;12.63;6.10;;;;;;;4.84;100.00;100032.34;1713550;83;21030;-72
2023/01/04 12:03:26;;;;;;;;;;;;;;;4.83;100.00;100041.35;1716416;83;21580;-75
2023/01/04 12:05:53;;;;;;;12.87;6.50;;;;;;;4.76;100.00;100046.39;1710306;83;20119;-72
2023/01/04 12:08:31;;;;;;;12.00;6.17;;;;;;;4.67;100.00;100053.39;1714621;83;21035;-73
2023/01/04 12:10:59;;;;;;;5.40;3.73;;;;;;;4.59;100.00;100048.38;1711130;83;21027;-72
2023/01/04 12:13:27;;;;;;;7.07;4.40;;;;;;;4.49;100.00;100043.78;1715641;83;21563;-72
2023/01/04 12:16:09;;;;;;;10.87;4.93;;;;;;;4.38;100.00;100051.89;1716124;83;21039;-75
2023/01/04 12:18:43;;;;;;;19.10;7.23;;;;;;;4.29;100.00;100055.36;1715195;83;21591;-75
2023/01/04 12:21:25;;;;;;;12.30;6.27;;;;;;;4.23;100.00;100051.35;1717511;83;21071;-79
2023/01/04 12:23:53;;;;;;;5.47;3.60;;;;;;;4.19;100.00;100056.61;1722723;83;21022;-75
2023/01/04 12:26:22;;;;;;;7.33;3.70;;;;;;;4.14;100.00;100050.80;1711415;83;21046;-76
2023/01/04 12:29:10;;;;;;;4.30;3.20;;;;;;;4.08;100.00;100056.69;1719733;83;21053;-75
2023/01/04 12:31:45;;;;;;;8.63;4.80;;;;;;;4.03;100.00;100046.85;1728846;82;21554;-80
2023/01/04 12:34:27;;;;;;;8.00;3.90;;;;;;;3.97;100.00;100064.27;1747001;82;20989;-78
2023/01/04 12:37:00;;;;;;;6.73;3.77;;;;;;;3.92;100.00;100072.67;1740769;82;21026;-76
2023/01/04 12:39:46;;;;;;;9.13;4.60;;;;;;;3.89;100.00;100076.93;1716451;84;21049;-77
2023/01/04 12:42:23;;;;;;;10.60;5.00;;;;;;;3.88;100.00;100074.37;1748604;82;21037;-77
2023/01/04 12:44:53;;;;;;;4.50;3.70;;;;;;;3.85;100.00;100070.14;1748790;82;21040;-78
2023/01/04 12:50:23;;;;;;;6.67;3.40;;;;;;;3.78;100.00;100075.64;1737941;82;20996;-78
2023/01/04 12:52:55;;;;;;;4.87;2.90;;;;;;;3.75;100.00;100072.75;1719000;83;21065;-77
2023/01/04 12:55:42;;;;;;;10.67;4.90;;;;;;;3.74;100.00;100076.39;1747865;82;20981;-78
2023/01/04 12:58:37;;;;;;;12.13;5.70;;;;;;;3.71;100.00;100079.80;1738760;82;21064;-71
2023/01/04 13:01:11;;;;;;;15.55;8.13;;;;;;;3.68;100.00;100078.70;1708814;84;21266;-79
2023/01/04 13:03:47;;;;;;;17.57;7.80;;;;;;;3.67;100.00;100078.36;1738376;82;21076;-77
2023/01/04 13:06:17;;;;;;;25.30;12.17;;;;;;;3.66;100.00;100083.34;1718746;82;21015;-77
2023/01/04 13:08:45;;;;;;;16.50;7.77;;;;;;;3.62;100.00;100090.77;1724722;81;21535;-72